sensor_id;sensor_type;location;lat;lon;timestamp;temperature;humidity
63260;DHT22;49390;51.380;0.098;2022-07-29T00:03:06;17.40;99.90
63260;DHT22;49390;51.380;0.098;2022-07-29T00:05:35;17.40;99.90
63260;DHT22;49390;51.380;0.098;2022-07-29T00:08:04;17.40;99.90
63260;DHT22;49390;51.380;0.098;2022-07-29T00:10:37;17.40;99.90
63260;DHT22;49390;51.380;0.098;2022-07-29T00:13:06;17.40;99.90
63260;DHT22;49390;51.380;0.098;2022-07-29T00:15:35;17.30;99.90
63260;DHT22;49390;51.380;0.098;2022-07-29T00:18:04;17.30;99.90
63260;DHT22;49390;51.380;0.098;2022-07-29T00:22:57;17.30;99.90
63260;DHT22;49390;51.380;0.098;2022-07-29T00:25:26;17.20;99.90
63260;DHT22;49390;51.380;0.098;2022-07-29T00:27:54;17.20;99.90
63260;DHT22;49390;51.380;0.098;2022-07-29T00:30:22;17.20;99.90
63260;DHT22;49390;51.380;0.098;2022-07-29T00:32:50;17.20;99.90
63260;DHT22;49390;51.380;0.098;2022-07-29T00:35:18;17.20;99.90
63260;DHT22;49390;51.380;0.098;2022-07-29T00:38:05;17.20;99.90
63260;DHT22;49390;51.380;0.098;2022-07-29T00:40:34;17.20;99.90
63260;DHT22;49390;51.380;0.098;2022-07-29T00:43:02;17.20;99.90
63260;DHT22;49390;51.380;0.098;2022-07-29T00:45:33;17.20;99.90
63260;DHT22;49390;51.380;0.098;2022-07-29T00:48:02;17.20;99.90
63260;DHT22;49390;51.380;0.098;2022-07-29T00:50:32;17.30;99.90
63260;DHT22;49390;51.380;0.098;2022-07-29T00:53:03;17.30;99.90
63260;DHT22;49390;51.380;0.098;2022-07-29T00:55:32;17.20;99.90
63260;DHT22;49390;51.380;0.098;2022-07-29T00:58:00;17.20;99.90
63260;DHT22;49390;51.380;0.098;2022-07-29T01:00:30;17.20;99.90
63260;DHT22;49390;51.380;0.098;2022-07-29T01:03:00;17.20;99.90
63260;DHT22;49390;51.380;0.098;2022-07-29T01:05:31;17.20;99.90
63260;DHT22;49390;51.380;0.098;2022-07-29T01:08:18;17.20;99.90
63260;DHT22;49390;51.380;0.098;2022-07-29T01:10:47;17.10;99.90
63260;DHT22;49390;51.380;0.098;2022-07-29T01:13:17;17.10;99.90
63260;DHT22;49390;51.380;0.098;2022-07-29T01:16:28;17.10;99.90
63260;DHT22;49390;51.380;0.098;2022-07-29T01:21:57;17.00;99.90
63260;DHT22;49390;51.380;0.098;2022-07-29T01:29:57;16.90;99.90
63260;DHT22;49390;51.380;0.098;2022-07-29T01:32:29;16.90;99.90
63260;DHT22;49390;51.380;0.098;2022-07-29T01:41:08;16.80;99.90
63260;DHT22;49390;51.380;0.098;2022-07-29T01:43:18;16.90;99.90
63260;DHT22;49390;51.380;0.098;2022-07-29T01:45:53;16.90;99.90
63260;DHT22;49390;51.380;0.098;2022-07-29T01:48:37;16.90;99.90
63260;DHT22;49390;51.380;0.098;2022-07-29T01:51:19;16.90;99.90
63260;DHT22;49390;51.380;0.098;2022-07-29T01:53:51;16.90;99.90
63260;DHT22;49390;51.380;0.098;2022-07-29T01:56:23;16.90;99.90
63260;DHT22;49390;51.380;0.098;2022-07-29T01:58:54;16.90;99.90
63260;DHT22;49390;51.380;0.098;2022-07-29T02:01:24;16.90;99.90
63260;DHT22;49390;51.380;0.098;2022-07-29T02:03:54;16.90;99.90
63260;DHT22;49390;51.380;0.098;2022-07-29T02:06:25;16.90;99.90
63260;DHT22;49390;51.380;0.098;2022-07-29T02:08:55;16.90;99.90
63260;DHT22;49390;51.380;0.098;2022-07-29T02:11:27;16.80;99.90
63260;DHT22;49390;51.380;0.098;2022-07-29T02:13:56;16.90;99.90
63260;DHT22;49390;51.380;0.098;2022-07-29T02:16:26;16.80;99.90
63260;DHT22;49390;51.380;0.098;2022-07-29T02:18:57;16.90;99.90
63260;DHT22;49390;51.380;0.098;2022-07-29T02:21:30;16.90;99.90
63260;DHT22;49390;51.380;0.098;2022-07-29T02:24:01;16.80;99.90
63260;DHT22;49390;51.380;0.098;2022-07-29T02:26:32;16.80;99.90
63260;DHT22;49390;51.380;0.098;2022-07-29T02:29:02;16.80;99.90
63260;DHT22;49390;51.380;0.098;2022-07-29T02:31:33;16.80;99.90
63260;DHT22;49390;51.380;0.098;2022-07-29T02:34:06;16.80;99.90
63260;DHT22;49390;51.380;0.098;2022-07-29T02:36:36;16.80;99.90
63260;DHT22;49390;51.380;0.098;2022-07-29T02:39:08;16.80;99.90
63260;DHT22;49390;51.380;0.098;2022-07-29T02:41:44;16.80;99.90
63260;DHT22;49390;51.380;0.098;2022-07-29T02:44:21;16.80;99.90
63260;DHT22;49390;51.380;0.098;2022-07-29T02:46:51;16.70;99.90
63260;DHT22;49390;51.380;0.098;2022-07-29T02:49:36;16.70;99.90
63260;DHT22;49390;51.380;0.098;2022-07-29T02:58:25;16.50;99.90
63260;DHT22;49390;51.380;0.098;2022-07-29T03:01:04;16.50;99.90
63260;DHT22;49390;51.380;0.098;2022-07-29T03:03:37;16.40;99.90
63260;DHT22;49390;51.380;0.098;2022-07-29T03:06:07;16.30;99.90
63260;DHT22;49390;51.380;0.098;2022-07-29T03:08:57;16.30;99.90
63260;DHT22;49390;51.380;0.098;2022-07-29T03:11:27;16.20;99.90
63260;DHT22;49390;51.380;0.098;2022-07-29T03:14:19;16.20;99.90
63260;DHT22;49390;51.380;0.098;2022-07-29T03:16:49;16.20;99.90
63260;DHT22;49390;51.380;0.098;2022-07-29T03:19:18;16.10;99.90
63260;DHT22;49390;51.380;0.098;2022-07-29T03:21:48;16.10;99.90
63260;DHT22;49390;51.380;0.098;2022-07-29T03:24:31;16.00;99.90
63260;DHT22;49390;51.380;0.098;2022-07-29T03:27:01;16.00;99.90
63260;DHT22;49390;51.380;0.098;2022-07-29T03:29:29;16.00;99.90
63260;DHT22;49390;51.380;0.098;2022-07-29T03:32:03;16.00;99.90
63260;DHT22;49390;51.380;0.098;2022-07-29T03:34:37;15.90;99.90
63260;DHT22;49390;51.380;0.098;2022-07-29T03:37:06;15.90;99.90
63260;DHT22;49390;51.380;0.098;2022-07-29T03:39:38;15.80;99.90
63260;DHT22;49390;51.380;0.098;2022-07-29T03:42:10;15.80;99.90
63260;DHT22;49390;51.380;0.098;2022-07-29T03:44:43;15.70;99.90
63260;DHT22;49390;51.380;0.098;2022-07-29T03:47:13;15.70;99.90
63260;DHT22;49390;51.380;0.098;2022-07-29T03:49:44;15.60;99.90
63260;DHT22;49390;51.380;0.098;2022-07-29T03:52:14;15.60;99.90
63260;DHT22;49390;51.380;0.098;2022-07-29T03:54:43;15.50;99.90
63260;DHT22;49390;51.380;0.098;2022-07-29T03:57:12;15.50;99.90
63260;DHT22;49390;51.380;0.098;2022-07-29T03:59:41;15.40;99.90
63260;DHT22;49390;51.380;0.098;2022-07-29T04:02:11;15.40;99.90
63260;DHT22;49390;51.380;0.098;2022-07-29T04:04:42;15.40;99.90
63260;DHT22;49390;51.380;0.098;2022-07-29T04:07:12;15.40;99.90
63260;DHT22;49390;51.380;0.098;2022-07-29T04:09:41;15.40;99.90
63260;DHT22;49390;51.380;0.098;2022-07-29T04:12:09;15.30;99.90
63260;DHT22;49390;51.380;0.098;2022-07-29T04:14:38;15.30;99.90
63260;DHT22;49390;51.380;0.098;2022-07-29T04:17:06;15.30;99.90
63260;DHT22;49390;51.380;0.098;2022-07-29T04:19:35;15.30;99.90
63260;DHT22;49390;51.380;0.098;2022-07-29T04:22:03;15.20;99.90
63260;DHT22;49390;51.380;0.098;2022-07-29T04:24:31;15.20;99.90
63260;DHT22;49390;51.380;0.098;2022-07-29T04:26:59;15.20;99.90
63260;DHT22;49390;51.380;0.098;2022-07-29T04:29:27;15.20;99.90
63260;DHT22;49390;51.380;0.098;2022-07-29T04:31:54;15.10;99.90
63260;DHT22;49390;51.380;0.098;2022-07-29T04:34:23;15.10;99.90
63260;DHT22;49390;51.380;0.098;2022-07-29T04:36:55;15.10;99.90
63260;DHT22;49390;51.380;0.098;2022-07-29T04:39:24;15.10;99.90
63260;DHT22;49390;51.380;0.098;2022-07-29T04:41:56;15.00;99.90
63260;DHT22;49390;51.380;0.098;2022-07-29T04:44:25;15.10;99.90
63260;DHT22;49390;51.380;0.098;2022-07-29T04:46:56;15.10;99.90
63260;DHT22;49390;51.380;0.098;2022-07-29T04:49:24;15.10;99.90
63260;DHT22;49390;51.380;0.098;2022-07-29T04:51:54;15.10;99.90
63260;DHT22;49390;51.380;0.098;2022-07-29T04:54:22;15.00;99.90
63260;DHT22;49390;51.380;0.098;2022-07-29T04:56:51;15.00;99.90
63260;DHT22;49390;51.380;0.098;2022-07-29T04:59:19;15.10;99.90
63260;DHT22;49390;51.380;0.098;2022-07-29T05:01:47;15.00;99.90
63260;DHT22;49390;51.380;0.098;2022-07-29T05:04:15;15.10;99.90
63260;DHT22;49390;51.380;0.098;2022-07-29T05:06:44;15.10;99.90
63260;DHT22;49390;51.380;0.098;2022-07-29T05:09:12;15.10;99.90
63260;DHT22;49390;51.380;0.098;2022-07-29T05:11:42;15.10;99.90
63260;DHT22;49390;51.380;0.098;2022-07-29T05:14:10;15.10;99.90
63260;DHT22;49390;51.380;0.098;2022-07-29T05:16:38;15.10;99.90
63260;DHT22;49390;51.380;0.098;2022-07-29T05:19:07;15.20;99.90
63260;DHT22;49390;51.380;0.098;2022-07-29T05:21:41;15.20;99.90
63260;DHT22;49390;51.380;0.098;2022-07-29T05:24:09;15.30;99.90
63260;DHT22;49390;51.380;0.098;2022-07-29T05:26:37;15.30;99.90
63260;DHT22;49390;51.380;0.098;2022-07-29T05:29:06;15.40;99.90
63260;DHT22;49390;51.380;0.098;2022-07-29T05:31:54;15.40;99.90
63260;DHT22;49390;51.380;0.098;2022-07-29T05:34:23;15.50;99.90
63260;DHT22;49390;51.380;0.098;2022-07-29T05:36:53;15.60;99.90
63260;DHT22;49390;51.380;0.098;2022-07-29T05:39:21;15.70;99.90
63260;DHT22;49390;51.380;0.098;2022-07-29T05:42:10;15.70;99.90
63260;DHT22;49390;51.380;0.098;2022-07-29T05:44:39;15.90;99.90
63260;DHT22;49390;51.380;0.098;2022-07-29T05:47:07;16.00;99.90
63260;DHT22;49390;51.380;0.098;2022-07-29T05:49:35;16.10;99.90
63260;DHT22;49390;51.380;0.098;2022-07-29T05:52:04;16.20;99.90
63260;DHT22;49390;51.380;0.098;2022-07-29T05:54:32;16.40;99.90
63260;DHT22;49390;51.380;0.098;2022-07-29T05:57:00;16.50;99.90
63260;DHT22;49390;51.380;0.098;2022-07-29T05:59:29;16.70;99.90
63260;DHT22;49390;51.380;0.098;2022-07-29T06:01:59;16.80;99.90
63260;DHT22;49390;51.380;0.098;2022-07-29T06:04:28;16.90;99.90
63260;DHT22;49390;51.380;0.098;2022-07-29T06:06:57;17.10;99.90
63260;DHT22;49390;51.380;0.098;2022-07-29T06:09:25;17.20;99.90
63260;DHT22;49390;51.380;0.098;2022-07-29T06:11:53;17.30;99.90
63260;DHT22;49390;51.380;0.098;2022-07-29T06:14:22;17.50;99.90
63260;DHT22;49390;51.380;0.098;2022-07-29T06:16:50;17.60;99.90
63260;DHT22;49390;51.380;0.098;2022-07-29T06:19:23;17.70;99.90
63260;DHT22;49390;51.380;0.098;2022-07-29T06:21:51;17.90;99.90
63260;DHT22;49390;51.380;0.098;2022-07-29T06:24:19;18.00;99.90
63260;DHT22;49390;51.380;0.098;2022-07-29T06:26:48;18.10;99.90
63260;DHT22;49390;51.380;0.098;2022-07-29T06:29:16;18.30;99.90
63260;DHT22;49390;51.380;0.098;2022-07-29T06:31:45;18.50;99.90
63260;DHT22;49390;51.380;0.098;2022-07-29T06:34:13;18.50;99.90
63260;DHT22;49390;51.380;0.098;2022-07-29T06:36:41;18.60;99.90
63260;DHT22;49390;51.380;0.098;2022-07-29T06:39:09;18.80;99.90
63260;DHT22;49390;51.380;0.098;2022-07-29T06:41:38;18.90;99.90
63260;DHT22;49390;51.380;0.098;2022-07-29T06:44:10;19.00;99.90
63260;DHT22;49390;51.380;0.098;2022-07-29T06:46:37;19.20;99.90
63260;DHT22;49390;51.380;0.098;2022-07-29T06:49:08;19.40;99.90
63260;DHT22;49390;51.380;0.098;2022-07-29T06:51:36;19.50;99.90
63260;DHT22;49390;51.380;0.098;2022-07-29T06:54:06;19.60;99.90
63260;DHT22;49390;51.380;0.098;2022-07-29T06:56:35;19.70;99.90
63260;DHT22;49390;51.380;0.098;2022-07-29T06:59:11;19.80;99.90
63260;DHT22;49390;51.380;0.098;2022-07-29T07:01:41;19.90;99.90
63260;DHT22;49390;51.380;0.098;2022-07-29T07:04:11;20.10;99.90
63260;DHT22;49390;51.380;0.098;2022-07-29T07:06:40;20.30;99.90
63260;DHT22;49390;51.380;0.098;2022-07-29T07:09:08;20.50;99.90
63260;DHT22;49390;51.380;0.098;2022-07-29T07:11:37;21.00;99.90
63260;DHT22;49390;51.380;0.098;2022-07-29T07:14:05;21.50;99.90
63260;DHT22;49390;51.380;0.098;2022-07-29T07:16:34;21.90;99.90
63260;DHT22;49390;51.380;0.098;2022-07-29T07:19:03;22.20;99.90
63260;DHT22;49390;51.380;0.098;2022-07-29T07:21:32;22.20;99.90
63260;DHT22;49390;51.380;0.098;2022-07-29T07:24:00;22.00;99.90
63260;DHT22;49390;51.380;0.098;2022-07-29T07:26:29;21.80;99.90
63260;DHT22;49390;51.380;0.098;2022-07-29T07:28:58;21.60;99.90
63260;DHT22;49390;51.380;0.098;2022-07-29T07:31:27;21.60;99.90
63260;DHT22;49390;51.380;0.098;2022-07-29T07:33:55;21.60;99.90
63260;DHT22;49390;51.380;0.098;2022-07-29T07:36:25;21.50;99.90
63260;DHT22;49390;51.380;0.098;2022-07-29T07:38:53;21.40;99.90
63260;DHT22;49390;51.380;0.098;2022-07-29T07:41:21;21.40;99.90
63260;DHT22;49390;51.380;0.098;2022-07-29T07:43:50;21.70;99.90
63260;DHT22;49390;51.380;0.098;2022-07-29T07:46:18;22.20;99.90
63260;DHT22;49390;51.380;0.098;2022-07-29T07:48:47;22.70;99.90
63260;DHT22;49390;51.380;0.098;2022-07-29T07:51:15;23.20;99.90
63260;DHT22;49390;51.380;0.098;2022-07-29T07:53:43;23.70;99.90
63260;DHT22;49390;51.380;0.098;2022-07-29T07:56:12;24.10;99.90
63260;DHT22;49390;51.380;0.098;2022-07-29T07:58:40;24.10;99.90
63260;DHT22;49390;51.380;0.098;2022-07-29T08:01:09;24.00;99.90
63260;DHT22;49390;51.380;0.098;2022-07-29T08:03:38;24.10;99.90
63260;DHT22;49390;51.380;0.098;2022-07-29T08:06:06;24.10;99.90
63260;DHT22;49390;51.380;0.098;2022-07-29T08:08:34;24.00;99.90
63260;DHT22;49390;51.380;0.098;2022-07-29T08:11:05;23.90;99.90
63260;DHT22;49390;51.380;0.098;2022-07-29T08:13:37;23.60;99.70
63260;DHT22;49390;51.380;0.098;2022-07-29T08:16:07;23.40;99.70
63260;DHT22;49390;51.380;0.098;2022-07-29T08:18:45;23.30;96.50
63260;DHT22;49390;51.380;0.098;2022-07-29T08:21:14;23.40;96.20
63260;DHT22;49390;51.380;0.098;2022-07-29T08:23:46;23.50;96.10
63260;DHT22;49390;51.380;0.098;2022-07-29T08:26:26;23.70;96.40
63260;DHT22;49390;51.380;0.098;2022-07-29T08:28:55;24.00;91.30
63260;DHT22;49390;51.380;0.098;2022-07-29T08:31:23;24.30;83.40
63260;DHT22;49390;51.380;0.098;2022-07-29T08:33:51;24.60;83.70
63260;DHT22;49390;51.380;0.098;2022-07-29T08:36:19;25.00;80.80
63260;DHT22;49390;51.380;0.098;2022-07-29T08:38:49;25.30;75.80
63260;DHT22;49390;51.380;0.098;2022-07-29T08:41:21;25.40;71.60
63260;DHT22;49390;51.380;0.098;2022-07-29T08:43:50;25.70;68.10
63260;DHT22;49390;51.380;0.098;2022-07-29T08:46:19;26.00;64.90
63260;DHT22;49390;51.380;0.098;2022-07-29T08:48:48;26.30;64.80
63260;DHT22;49390;51.380;0.098;2022-07-29T08:51:19;26.40;63.60
63260;DHT22;49390;51.380;0.098;2022-07-29T08:53:49;26.60;63.10
63260;DHT22;49390;51.380;0.098;2022-07-29T08:56:18;26.90;62.20
63260;DHT22;49390;51.380;0.098;2022-07-29T08:58:48;27.20;60.60
63260;DHT22;49390;51.380;0.098;2022-07-29T09:01:23;27.40;58.30
63260;DHT22;49390;51.380;0.098;2022-07-29T09:04:11;27.30;56.40
63260;DHT22;49390;51.380;0.098;2022-07-29T09:06:46;27.20;55.80
63260;DHT22;49390;51.380;0.098;2022-07-29T09:09:14;27.20;55.70
63260;DHT22;49390;51.380;0.098;2022-07-29T09:11:45;27.40;54.20
63260;DHT22;49390;51.380;0.098;2022-07-29T09:14:14;27.50;51.90
63260;DHT22;49390;51.380;0.098;2022-07-29T09:16:55;27.50;50.90
63260;DHT22;49390;51.380;0.098;2022-07-29T09:19:35;27.60;51.00
63260;DHT22;49390;51.380;0.098;2022-07-29T09:22:05;27.60;50.30
63260;DHT22;49390;51.380;0.098;2022-07-29T09:27:27;27.30;50.30
63260;DHT22;49390;51.380;0.098;2022-07-29T09:30:08;26.90;51.40
63260;DHT22;49390;51.380;0.098;2022-07-29T09:32:55;26.70;51.90
63260;DHT22;49390;51.380;0.098;2022-07-29T09:35:25;26.70;52.20
63260;DHT22;49390;51.380;0.098;2022-07-29T09:37:54;26.60;52.70
63260;DHT22;49390;51.380;0.098;2022-07-29T09:40:24;26.60;53.20
63260;DHT22;49390;51.380;0.098;2022-07-29T09:42:53;26.70;53.80
63260;DHT22;49390;51.380;0.098;2022-07-29T09:45:32;26.70;53.70
63260;DHT22;49390;51.380;0.098;2022-07-29T09:48:17;26.90;52.90
63260;DHT22;49390;51.380;0.098;2022-07-29T09:50:46;27.00;52.80
63260;DHT22;49390;51.380;0.098;2022-07-29T09:53:35;27.10;52.30
63260;DHT22;49390;51.380;0.098;2022-07-29T09:56:05;27.20;50.50
63260;DHT22;49390;51.380;0.098;2022-07-29T09:58:34;27.20;50.80
63260;DHT22;49390;51.380;0.098;2022-07-29T10:01:03;27.10;50.40
63260;DHT22;49390;51.380;0.098;2022-07-29T10:03:50;27.00;49.20
63260;DHT22;49390;51.380;0.098;2022-07-29T10:06:19;26.90;48.80
63260;DHT22;49390;51.380;0.098;2022-07-29T10:08:47;26.90;48.50
63260;DHT22;49390;51.380;0.098;2022-07-29T10:11:18;26.90;48.10
63260;DHT22;49390;51.380;0.098;2022-07-29T10:13:48;26.80;48.20
63260;DHT22;49390;51.380;0.098;2022-07-29T10:16:16;26.70;48.60
63260;DHT22;49390;51.380;0.098;2022-07-29T10:18:45;26.70;48.80
63260;DHT22;49390;51.380;0.098;2022-07-29T10:21:14;26.50;48.60
63260;DHT22;49390;51.380;0.098;2022-07-29T10:24:06;26.30;49.40
63260;DHT22;49390;51.380;0.098;2022-07-29T10:26:42;26.20;50.40
63260;DHT22;49390;51.380;0.098;2022-07-29T10:29:12;26.20;50.00
63260;DHT22;49390;51.380;0.098;2022-07-29T10:31:49;26.40;49.90
63260;DHT22;49390;51.380;0.098;2022-07-29T10:37:32;26.70;49.00
63260;DHT22;49390;51.380;0.098;2022-07-29T10:40:26;26.80;48.50
63260;DHT22;49390;51.380;0.098;2022-07-29T10:43:21;26.90;48.20
63260;DHT22;49390;51.380;0.098;2022-07-29T10:45:56;26.90;47.60
63260;DHT22;49390;51.380;0.098;2022-07-29T10:48:25;26.70;47.30
63260;DHT22;49390;51.380;0.098;2022-07-29T10:51:02;26.50;47.80
63260;DHT22;49390;51.380;0.098;2022-07-29T10:53:51;26.50;48.30
63260;DHT22;49390;51.380;0.098;2022-07-29T10:56:32;26.60;47.70
63260;DHT22;49390;51.380;0.098;2022-07-29T11:01:50;26.70;47.20
63260;DHT22;49390;51.380;0.098;2022-07-29T11:07:11;26.80;47.00
63260;DHT22;49390;51.380;0.098;2022-07-29T11:15:14;27.10;45.60
63260;DHT22;49390;51.380;0.098;2022-07-29T11:20:31;27.20;45.40
63260;DHT22;49390;51.380;0.098;2022-07-29T11:23:01;27.20;44.20
63260;DHT22;49390;51.380;0.098;2022-07-29T11:25:31;27.10;44.00
63260;DHT22;49390;51.380;0.098;2022-07-29T11:28:20;27.00;44.10
63260;DHT22;49390;51.380;0.098;2022-07-29T11:30:53;26.90;43.90
63260;DHT22;49390;51.380;0.098;2022-07-29T11:33:33;26.80;44.00
63260;DHT22;49390;51.380;0.098;2022-07-29T11:36:22;26.80;44.00
63260;DHT22;49390;51.380;0.098;2022-07-29T11:39:27;26.70;44.50
63260;DHT22;49390;51.380;0.098;2022-07-29T11:45:04;26.90;43.90
63260;DHT22;49390;51.380;0.098;2022-07-29T11:47:57;26.90;43.80
63260;DHT22;49390;51.380;0.098;2022-07-29T11:50:50;27.00;43.40
63260;DHT22;49390;51.380;0.098;2022-07-29T11:53:18;27.00;43.60
63260;DHT22;49390;51.380;0.098;2022-07-29T11:55:54;27.00;43.60
63260;DHT22;49390;51.380;0.098;2022-07-29T11:58:25;27.10;43.90
63260;DHT22;49390;51.380;0.098;2022-07-29T12:00:56;27.10;44.00
63260;DHT22;49390;51.380;0.098;2022-07-29T12:03:32;27.30;44.10
63260;DHT22;49390;51.380;0.098;2022-07-29T12:06:20;27.30;44.10
63260;DHT22;49390;51.380;0.098;2022-07-29T12:08:49;27.30;43.90
63260;DHT22;49390;51.380;0.098;2022-07-29T12:11:18;27.30;43.70
63260;DHT22;49390;51.380;0.098;2022-07-29T12:13:51;27.30;43.50
63260;DHT22;49390;51.380;0.098;2022-07-29T12:16:20;27.30;43.60
63260;DHT22;49390;51.380;0.098;2022-07-29T12:19:00;27.30;43.80
63260;DHT22;49390;51.380;0.098;2022-07-29T12:21:50;27.50;43.60
63260;DHT22;49390;51.380;0.098;2022-07-29T12:24:23;27.50;43.50
63260;DHT22;49390;51.380;0.098;2022-07-29T12:26:56;27.60;43.30
63260;DHT22;49390;51.380;0.098;2022-07-29T12:29:24;27.60;43.30
63260;DHT22;49390;51.380;0.098;2022-07-29T12:32:03;27.70;43.40
63260;DHT22;49390;51.380;0.098;2022-07-29T12:34:41;27.70;42.50
63260;DHT22;49390;51.380;0.098;2022-07-29T12:37:13;27.70;42.50
63260;DHT22;49390;51.380;0.098;2022-07-29T12:39:40;27.80;42.60
63260;DHT22;49390;51.380;0.098;2022-07-29T12:42:13;27.90;42.70
63260;DHT22;49390;51.380;0.098;2022-07-29T12:44:50;28.10;42.10
63260;DHT22;49390;51.380;0.098;2022-07-29T12:47:19;28.20;41.80
63260;DHT22;49390;51.380;0.098;2022-07-29T12:49:49;28.30;41.80
63260;DHT22;49390;51.380;0.098;2022-07-29T12:52:26;28.40;42.00
63260;DHT22;49390;51.380;0.098;2022-07-29T12:54:55;28.30;40.70
63260;DHT22;49390;51.380;0.098;2022-07-29T12:57:24;28.30;40.80
63260;DHT22;49390;51.380;0.098;2022-07-29T13:00:00;28.20;40.80
63260;DHT22;49390;51.380;0.098;2022-07-29T13:02:29;28.10;40.90
63260;DHT22;49390;51.380;0.098;2022-07-29T13:05:01;27.90;41.10
63260;DHT22;49390;51.380;0.098;2022-07-29T13:07:31;27.90;41.50
63260;DHT22;49390;51.380;0.098;2022-07-29T13:10:20;27.90;41.50
63260;DHT22;49390;51.380;0.098;2022-07-29T13:13:13;27.90;41.20
63260;DHT22;49390;51.380;0.098;2022-07-29T13:15:43;28.10;41.30
63260;DHT22;49390;51.380;0.098;2022-07-29T13:18:33;28.20;41.10
63260;DHT22;49390;51.380;0.098;2022-07-29T13:21:12;28.30;41.00
63260;DHT22;49390;51.380;0.098;2022-07-29T13:23:42;28.40;40.80
63260;DHT22;49390;51.380;0.098;2022-07-29T13:26:11;28.50;40.70
63260;DHT22;49390;51.380;0.098;2022-07-29T13:28:40;28.60;40.70
63260;DHT22;49390;51.380;0.098;2022-07-29T13:31:11;28.50;40.60
63260;DHT22;49390;51.380;0.098;2022-07-29T13:33:39;28.30;40.70
63260;DHT22;49390;51.380;0.098;2022-07-29T13:36:07;28.20;41.10
63260;DHT22;49390;51.380;0.098;2022-07-29T13:38:35;28.00;41.40
63260;DHT22;49390;51.380;0.098;2022-07-29T13:41:04;27.90;41.60
63260;DHT22;49390;51.380;0.098;2022-07-29T13:43:32;27.80;41.60
63260;DHT22;49390;51.380;0.098;2022-07-29T13:46:01;27.80;42.10
63260;DHT22;49390;51.380;0.098;2022-07-29T13:48:30;28.00;40.60
63260;DHT22;49390;51.380;0.098;2022-07-29T13:50:58;28.10;40.80
63260;DHT22;49390;51.380;0.098;2022-07-29T13:53:26;28.30;40.50
63260;DHT22;49390;51.380;0.098;2022-07-29T13:55:58;28.60;40.40
63260;DHT22;49390;51.380;0.098;2022-07-29T13:58:26;28.60;40.00
63260;DHT22;49390;51.380;0.098;2022-07-29T14:00:55;28.60;39.90
63260;DHT22;49390;51.380;0.098;2022-07-29T14:03:24;28.50;39.90
63260;DHT22;49390;51.380;0.098;2022-07-29T14:05:52;28.50;39.80
63260;DHT22;49390;51.380;0.098;2022-07-29T14:08:20;28.50;39.70
63260;DHT22;49390;51.380;0.098;2022-07-29T14:10:50;28.70;39.70
63260;DHT22;49390;51.380;0.098;2022-07-29T14:13:18;29.00;39.50
63260;DHT22;49390;51.380;0.098;2022-07-29T14:15:53;29.10;38.90
63260;DHT22;49390;51.380;0.098;2022-07-29T14:18:21;29.30;38.70
63260;DHT22;49390;51.380;0.098;2022-07-29T14:20:49;29.30;38.50
63260;DHT22;49390;51.380;0.098;2022-07-29T14:23:18;29.30;39.20
63260;DHT22;49390;51.380;0.098;2022-07-29T14:25:46;29.40;38.30
63260;DHT22;49390;51.380;0.098;2022-07-29T14:28:17;29.50;38.30
63260;DHT22;49390;51.380;0.098;2022-07-29T14:30:45;29.70;37.80
63260;DHT22;49390;51.380;0.098;2022-07-29T14:33:14;29.80;37.30
63260;DHT22;49390;51.380;0.098;2022-07-29T14:35:42;29.80;36.90
63260;DHT22;49390;51.380;0.098;2022-07-29T14:38:11;29.70;36.70
63260;DHT22;49390;51.380;0.098;2022-07-29T14:40:40;29.70;36.90
63260;DHT22;49390;51.380;0.098;2022-07-29T14:43:08;29.70;37.20
63260;DHT22;49390;51.380;0.098;2022-07-29T14:45:37;29.80;37.20
63260;DHT22;49390;51.380;0.098;2022-07-29T14:48:05;29.80;37.00
63260;DHT22;49390;51.380;0.098;2022-07-29T14:50:34;29.80;36.40
63260;DHT22;49390;51.380;0.098;2022-07-29T14:53:02;29.70;36.50
63260;DHT22;49390;51.380;0.098;2022-07-29T14:55:30;29.60;36.70
63260;DHT22;49390;51.380;0.098;2022-07-29T14:57:58;29.40;37.20
63260;DHT22;49390;51.380;0.098;2022-07-29T15:00:37;29.30;37.60
63260;DHT22;49390;51.380;0.098;2022-07-29T15:03:05;29.20;37.50
63260;DHT22;49390;51.380;0.098;2022-07-29T15:05:38;29.00;37.50
63260;DHT22;49390;51.380;0.098;2022-07-29T15:08:06;28.90;37.60
63260;DHT22;49390;51.380;0.098;2022-07-29T15:10:35;28.80;37.80
63260;DHT22;49390;51.380;0.098;2022-07-29T15:13:05;28.90;37.90
63260;DHT22;49390;51.380;0.098;2022-07-29T15:15:33;29.00;37.90
63260;DHT22;49390;51.380;0.098;2022-07-29T15:18:01;29.10;37.70
63260;DHT22;49390;51.380;0.098;2022-07-29T15:20:29;29.20;37.30
63260;DHT22;49390;51.380;0.098;2022-07-29T15:22:57;29.30;37.10
63260;DHT22;49390;51.380;0.098;2022-07-29T15:25:25;29.40;37.00
63260;DHT22;49390;51.380;0.098;2022-07-29T15:27:55;29.40;36.90
63260;DHT22;49390;51.380;0.098;2022-07-29T15:30:30;29.30;36.80
63260;DHT22;49390;51.380;0.098;2022-07-29T15:33:02;29.10;37.10
63260;DHT22;49390;51.380;0.098;2022-07-29T15:35:31;29.10;37.00
63260;DHT22;49390;51.380;0.098;2022-07-29T15:38:07;29.10;37.10
63260;DHT22;49390;51.380;0.098;2022-07-29T15:40:38;29.10;37.30
63260;DHT22;49390;51.380;0.098;2022-07-29T15:43:08;29.10;37.40
63260;DHT22;49390;51.380;0.098;2022-07-29T15:45:41;29.10;37.50
63260;DHT22;49390;51.380;0.098;2022-07-29T15:48:29;29.00;37.60
63260;DHT22;49390;51.380;0.098;2022-07-29T15:50:59;28.90;37.60
63260;DHT22;49390;51.380;0.098;2022-07-29T15:53:30;28.90;37.50
63260;DHT22;49390;51.380;0.098;2022-07-29T15:55:59;28.90;37.50
63260;DHT22;49390;51.380;0.098;2022-07-29T15:58:27;28.90;37.60
63260;DHT22;49390;51.380;0.098;2022-07-29T16:00:56;28.80;37.80
63260;DHT22;49390;51.380;0.098;2022-07-29T16:03:24;28.80;38.00
63260;DHT22;49390;51.380;0.098;2022-07-29T16:05:52;28.70;38.00
63260;DHT22;49390;51.380;0.098;2022-07-29T16:08:20;28.60;38.20
63260;DHT22;49390;51.380;0.098;2022-07-29T16:10:49;28.50;38.40
63260;DHT22;49390;51.380;0.098;2022-07-29T16:13:17;28.40;38.50
63260;DHT22;49390;51.380;0.098;2022-07-29T16:15:47;28.40;38.80
63260;DHT22;49390;51.380;0.098;2022-07-29T16:18:29;28.30;38.80
63260;DHT22;49390;51.380;0.098;2022-07-29T16:20:57;28.10;38.90
63260;DHT22;49390;51.380;0.098;2022-07-29T16:23:26;28.00;39.00
63260;DHT22;49390;51.380;0.098;2022-07-29T16:25:54;28.00;39.20
63260;DHT22;49390;51.380;0.098;2022-07-29T16:28:28;27.90;39.30
63260;DHT22;49390;51.380;0.098;2022-07-29T16:30:57;27.80;39.60
63260;DHT22;49390;51.380;0.098;2022-07-29T16:33:27;27.80;39.60
63260;DHT22;49390;51.380;0.098;2022-07-29T16:36:17;27.80;39.40
63260;DHT22;49390;51.380;0.098;2022-07-29T16:38:45;27.70;39.50
63260;DHT22;49390;51.380;0.098;2022-07-29T16:41:17;27.70;39.60
63260;DHT22;49390;51.380;0.098;2022-07-29T16:43:45;27.70;39.70
63260;DHT22;49390;51.380;0.098;2022-07-29T16:46:13;27.80;39.70